Time;durP1;ratioP1;P1;durP2;ratioP2;P2;SDS_P1;SDS_P2;PMS_P1;PMS_P2;Temp;Humidity;BMP_temperature;BMP_pressure;BME280_temperature;BME280_humidity;BME280_pressure;Samples;Min_cycle;Max_cycle;Signal;HPM_P1;HPM_P2
2023/04/23 00:01:07;;;;;;;38.23;20.53;;;;;;;9.55;70.04;100200.41;1431294;89;21433;-81
2023/04/23 00:03:36;;;;;;;42.73;20.90;;;;;;;9.59;70.46;100195.20;1429987;90;21506;-82
2023/04/23 00:06:06;;;;;;;44.60;22.30;;;;;;;9.63;69.84;100192.59;1410623;91;22134;-81
2023/04/23 00:08:33;;;;;;;42.08;22.40;;;;;;;9.68;69.38;100190.34;1422786;91;22426;-80
2023/04/23 00:11:02;;;;;;;42.93;23.33;;;;;;;9.69;69.11;100188.03;1422485;90;21470;-81
2023/04/23 00:13:29;;;;;;;40.60;22.00;;;;;;;9.71;69.03;100188.23;1414349;91;21456;-81
2023/04/23 00:15:56;;;;;;;38.33;20.53;;;;;;;9.77;68.72;100189.45;1422152;89;21385;-82
2023/04/23 00:18:22;;;;;;;36.33;21.27;;;;;;;9.81;68.68;100184.69;1440085;89;22322;-82
2023/04/23 00:20:49;;;;;;;39.73;20.27;;;;;;;9.81;69.17;100180.73;1440196;91;21427;-81
2023/04/23 00:23:15;;;;;;;42.77;23.00;;;;;;;9.82;68.41;100180.59;1433161;91;22587;-81
2023/04/23 00:25:41;;;;;;;44.03;22.13;;;;;;;9.80;69.27;100178.58;1432331;90;21549;-82
2023/04/23 00:28:08;;;;;;;47.93;22.67;;;;;;;9.76;68.89;100177.23;1430738;89;21472;-82
2023/04/23 00:30:34;;;;;;;41.43;19.83;;;;;;;9.77;68.52;100177.55;1436892;90;21636;-82
2023/04/23 00:33:00;;;;;;;37.60;19.83;;;;;;;9.80;68.85;100176.44;1437137;91;22341;-81
2023/04/23 00:35:26;;;;;;;37.63;19.00;;;;;;;9.84;68.69;100176.46;1433134;90;21586;-81
2023/04/23 00:37:52;;;;;;;45.13;20.47;;;;;;;9.89;68.81;100175.03;1437750;89;21531;-82
2023/04/23 00:40:19;;;;;;;49.40;21.13;;;;;;;9.94;68.51;100176.75;1436194;91;22352;-82
2023/04/23 00:42:46;;;;;;;35.80;19.63;;;;;;;9.99;68.50;100174.16;1436013;90;21627;-81
2023/04/23 00:45:12;;;;;;;31.10;17.13;;;;;;;10.02;68.34;100172.05;1417976;92;22411;-81
2023/04/23 00:47:40;;;;;;;36.57;19.50;;;;;;;10.01;69.03;100174.83;1424746;91;21448;-81
2023/04/23 00:50:07;;;;;;;34.53;18.60;;;;;;;9.97;68.48;100178.77;1429222;91;21471;-79
2023/04/23 00:52:34;;;;;;;34.73;19.10;;;;;;;9.93;68.86;100173.77;1419196;92;21546;-82
2023/04/23 00:55:02;;;;;;;41.23;20.10;;;;;;;9.94;68.00;100170.14;1433163;91;21412;-82
2023/04/23 00:57:28;;;;;;;37.27;20.40;;;;;;;9.90;69.33;100174.08;1437870;90;21454;-82
2023/04/23 00:59:57;;;;;;;44.77;20.43;;;;;;;9.85;69.87;100179.47;1418546;92;21702;-82
2023/04/23 01:02:26;;;;;;;32.87;18.30;;;;;;;9.83;70.39;100184.06;1418352;91;21717;-82
2023/04/23 01:04:54;;;;;;;38.40;19.93;;;;;;;9.60;71.41;100175.22;1419734;91;21545;-82
2023/04/23 01:07:21;;;;;;;35.90;19.67;;;;;;;9.60;71.41;100175.22;1418748;91;21449;-82
2023/04/23 01:09:50;;;;;;;38.20;20.17;;;;;;;9.59;71.36;100178.02;1418752;92;21427;-82
2023/04/23 01:12:17;;;;;;;41.10;21.47;;;;;;;9.55;71.85;100175.31;1408458;92;21804;-81
2023/04/23 01:14:43;;;;;;;36.13;22.20;;;;;;;9.54;71.40;100185.55;1414687;92;21553;-82
2023/04/23 01:17:11;;;;;;;45.50;24.63;;;;;;;9.51;70.68;100183.20;1415391;92;21516;-81
2023/04/23 01:19:38;;;;;;;39.60;22.67;;;;;;;9.51;69.88;100180.06;1396129;93;21480;-82
2023/04/23 01:22:13;;;;;;;36.03;20.83;;;;;;;9.53;70.41;100186.05;1410216;92;21434;-80
2023/04/23 01:24:41;;;;;;;39.80;21.63;;;;;;;9.54;70.45;100181.09;1426001;91;21538;-80
2023/04/23 01:27:09;;;;;;;36.63;21.73;;;;;;;9.59;69.39;100179.34;1425268;91;22472;-81
2023/04/23 01:29:37;;;;;;;38.03;21.63;;;;;;;9.59;70.58;100183.30;1425474;92;21391;-81
2023/04/23 01:32:04;;;;;;;44.23;21.27;;;;;;;9.57;70.93;100182.12;1405382;92;22343;-81
2023/04/23 01:34:31;;;;;;;34.23;19.80;;;;;;;9.56;71.21;100183.11;1415253;92;21486;-81
2023/04/23 01:36:59;;;;;;;40.27;20.70;;;;;;;9.58;70.84;100184.27;1413696;91;21540;-80
2023/04/23 01:39:25;;;;;;;34.43;19.57;;;;;;;9.62;71.34;100185.65;1429876;90;21485;-81
2023/04/23 01:41:52;;;;;;;43.27;22.37;;;;;;;9.68;71.08;100181.09;1430583;91;21440;-82
2023/04/23 01:44:19;;;;;;;44.23;20.83;;;;;;;9.76;70.73;100187.80;1433994;90;21492;-80
2023/04/23 01:46:45;;;;;;;38.83;21.83;;;;;;;9.80;70.42;100181.72;1422858;91;21463;-81
2023/04/23 01:49:12;;;;;;;37.73;22.70;;;;;;;9.81;70.09;100178.94;1437239;90;22348;-81
2023/04/23 01:51:38;;;;;;;39.20;22.13;;;;;;;9.81;70.13;100180.73;1438198;90;21586;-81
2023/04/23 01:54:04;;;;;;;45.30;23.30;;;;;;;9.78;69.67;100183.20;1429269;90;21431;-80
2023/04/23 01:56:33;;;;;;;35.90;21.93;;;;;;;9.73;69.92;100182.81;1423361;89;21471;-79
2023/04/23 01:58:59;;;;;;;39.93;21.90;;;;;;;9.70;69.73;100186.58;1448507;90;21482;-79
2023/04/23 02:01:27;;;;;;;31.83;21.27;;;;;;;9.70;69.40;100185.75;1448821;89;23620;-79
2023/04/23 02:03:53;;;;;;;40.77;21.53;;;;;;;9.68;69.37;100181.92;1435177;91;21493;-80
2023/04/23 02:06:20;;;;;;;48.83;24.93;;;;;;;9.66;69.11;100181.72;1446987;90;21452;-81
2023/04/23 02:08:46;;;;;;;37.80;21.33;;;;;;;9.66;69.18;100183.04;1451317;89;21401;-80
2023/04/23 02:11:12;;;;;;;35.90;20.23;;;;;;;9.68;70.17;100178.45;1438175;90;21494;-80
2023/04/23 02:13:38;;;;;;;38.27;19.73;;;;;;;9.70;70.64;100180.47;1434581;91;22396;-80
2023/04/23 02:16:05;;;;;;;39.10;19.57;;;;;;;9.71;70.04;100184.76;1448416;90;21529;-80
2023/04/23 02:18:31;;;;;;;41.73;20.77;;;;;;;9.69;69.63;100181.42;1446262;89;21590;-80
2023/04/23 02:20:58;;;;;;;38.27;20.07;;;;;;;9.75;69.25;100187.93;1434520;90;21433;-79
2023/04/23 02:23:24;;;;;;;33.10;19.10;;;;;;;9.77;69.01;100184.16;1436964;91;21405;-80
2023/04/23 02:25:51;;;;;;;38.87;20.63;;;;;;;9.80;69.12;100185.68;1437678;90;21589;-81
2023/04/23 02:28:17;;;;;;;34.60;20.50;;;;;;;9.79;69.06;100182.22;1439144;90;21428;-82
2023/04/23 02:30:46;;;;;;;39.27;22.03;;;;;;;9.82;69.18;100183.23;1415845;91;21472;-81
2023/04/23 02:33:12;;;;;;;49.87;21.73;;;;;;;9.81;69.87;100180.73;1434840;91;21545;-81
2023/04/23 02:35:38;;;;;;;32.87;19.43;;;;;;;9.77;69.77;100178.88;1438061;91;21592;-81
2023/04/23 02:38:04;;;;;;;39.70;20.50;;;;;;;9.73;69.75;100181.48;1433042;91;22760;-81
2023/04/23 02:40:31;;;;;;;29.37;19.23;;;;;;;9.68;69.61;100179.27;1432224;91;21513;-81
2023/04/23 02:42:57;;;;;;;39.50;20.70;;;;;;;9.66;69.99;100180.40;1433313;91;21646;-81
2023/04/23 02:45:23;;;;;;;37.93;19.63;;;;;;;9.61;70.61;100182.18;1450999;90;21469;-81
2023/04/23 02:47:49;;;;;;;34.87;19.67;;;;;;;9.60;70.65;100188.92;1438071;90;21416;-82
2023/04/23 02:50:15;;;;;;;34.00;18.23;;;;;;;9.60;70.99;100190.23;1432825;91;22407;-82
2023/04/23 02:52:42;;;;;;;31.97;17.47;;;;;;;9.62;71.43;100189.61;1443385;90;21402;-82
2023/04/23 02:55:09;;;;;;;35.73;16.80;;;;;;;9.65;70.92;100180.06;1456493;90;21601;-82
2023/04/23 02:57:36;;;;;;;29.33;17.87;;;;;;;9.67;70.16;100180.27;1410039;91;22520;-80
2023/04/23 03:00:10;;;;;;;30.17;16.83;;;;;;;9.70;69.64;100185.75;1438967;91;22530;-80
2023/04/23 03:02:32;;;;;;;33.37;17.00;;;;;;;9.73;69.42;100181.98;1446718;90;21512;-80
2023/04/23 03:04:58;;;;;;;28.60;16.73;;;;;;;9.73;69.82;100184.62;1438996;90;22414;-80
2023/04/23 03:07:24;;;;;;;33.60;19.30;;;;;;;9.66;70.69;100189.65;1452073;90;21432;-80
2023/04/23 03:09:51;;;;;;;27.40;17.27;;;;;;;9.62;70.45;100186.97;1410362;92;21560;-80
2023/04/23 03:12:17;;;;;;;31.70;18.67;;;;;;;9.60;70.19;100184.95;1433804;90;21424;-80
2023/04/23 03:14:43;;;;;;;34.97;19.47;;;;;;;9.60;70.12;100182.31;1452964;89;21468;-80
2023/04/23 03:17:10;;;;;;;26.10;16.73;;;;;;;9.61;70.40;100179.54;1432764;90;21619;-81
2023/04/23 03:19:36;;;;;;;31.17;17.83;;;;;;;9.65;70.28;100182.71;1434814;90;21572;-80
2023/04/23 03:22:04;;;;;;;33.63;17.00;;;;;;;9.68;70.64;100185.05;1447945;90;21576;-80
2023/04/23 03:24:33;;;;;;;38.17;17.97;;;;;;;9.71;70.33;100184.76;1460783;88;22351;-80
2023/04/23 03:26:59;;;;;;;32.07;18.00;;;;;;;9.73;70.70;100188.09;1393453;92;22786;-80
2023/04/23 03:29:27;;;;;;;31.03;16.53;;;;;;;9.74;70.27;100186.28;1410204;92;21396;-80
2023/04/23 03:31:53;;;;;;;25.17;15.20;;;;;;;9.74;69.82;100181.81;1414478;90;21435;-80
2023/04/23 03:34:19;;;;;;;20.47;14.37;;;;;;;9.76;69.63;100183.01;1404043;92;22744;-80
2023/04/23 03:36:47;;;;;;;48.20;15.67;;;;;;;9.76;69.33;100186.47;1441618;90;21386;-81
2023/04/23 03:39:14;;;;;;;21.97;14.30;;;;;;;9.78;69.25;100188.48;1460785;89;21396;-80
2023/04/23 03:41:41;;;;;;;31.87;14.73;;;;;;;9.78;69.83;100192.45;1404046;92;21530;-80
2023/04/23 03:44:07;;;;;;;23.10;13.20;;;;;;;9.75;70.14;100190.08;1406198;92;21456;-80
2023/04/23 03:46:33;;;;;;;23.20;12.60;;;;;;;9.71;71.78;100191.36;1410849;92;22081;-80
2023/04/23 03:48:59;;;;;;;22.93;12.40;;;;;;;9.62;71.79;100194.89;1407048;92;22050;-80
2023/04/23 03:51:26;;;;;;;19.50;12.47;;;;;;;9.60;71.44;100196.84;1412001;92;21642;-81
2023/04/23 03:53:52;;;;;;;26.50;13.67;;;;;;;9.62;71.33;100190.94;1416604;92;21656;-80
2023/04/23 03:56:18;;;;;;;17.00;12.47;;;;;;;9.66;71.18;100195.76;1416986;92;21463;-79
2023/04/23 03:58:45;;;;;;;25.97;13.67;;;;;;;9.73;70.46;100194.70;1415126;91;21427;-80
2023/04/23 04:01:11;;;;;;;23.67;12.83;;;;;;;9.77;69.97;100190.77;1428688;91;21627;-79
2023/04/23 04:03:37;;;;;;;21.67;13.27;;;;;;;9.83;69.80;100188.85;1424707;91;21472;-80
2023/04/23 04:06:04;;;;;;;21.43;12.40;;;;;;;9.88;69.43;100193.20;1401586;91;21472;-81
2023/04/23 04:08:30;;;;;;;19.87;12.63;;;;;;;9.91;69.21;100194.23;1410613;92;21456;-81
2023/04/23 04:10:57;;;;;;;19.37;12.47;;;;;;;9.96;69.43;100200.91;1396887;92;21503;-81
2023/04/23 04:13:23;;;;;;;24.27;11.73;;;;;;;9.98;68.96;100196.27;1415155;92;22529;-81
2023/04/23 04:15:49;;;;;;;19.50;11.77;;;;;;;10.02;68.97;100197.16;1417036;92;21474;-81
2023/04/23 04:18:15;;;;;;;23.23;13.13;;;;;;;10.06;68.29;100201.66;1418675;92;21471;-82
2023/04/23 04:20:43;;;;;;;20.80;11.60;;;;;;;10.08;67.85;100193.91;1426152;92;21593;-82
2023/04/23 04:23:09;;;;;;;20.37;13.23;;;;;;;10.10;67.72;100194.61;1424436;92;21536;-83
2023/04/23 04:25:38;;;;;;;23.20;12.57;;;;;;;10.15;67.74;100194.13;1427481;92;22477;-81
2023/04/23 04:28:03;;;;;;;22.07;13.10;;;;;;;10.16;67.99;100199.28;1418829;92;22470;-82
2023/04/23 04:30:30;;;;;;;24.50;13.07;;;;;;;10.20;68.36;100198.98;1421998;92;21517;-82
2023/04/23 04:32:57;;;;;;;23.10;12.40;;;;;;;10.21;68.50;100194.85;1421151;92;21434;-80
2023/04/23 04:35:23;;;;;;;21.17;12.57;;;;;;;10.23;68.40;100194.72;1421328;92;21436;-79
2023/04/23 04:37:52;;;;;;;31.90;13.93;;;;;;;10.25;67.75;100196.23;1428883;92;21501;-80
2023/04/23 04:40:18;;;;;;;25.17;13.00;;;;;;;10.29;67.63;100201.58;1418723;92;21479;-81
2023/04/23 04:42:45;;;;;;;24.40;13.03;;;;;;;10.37;67.26;100200.83;1420558;92;21517;-81
2023/04/23 04:45:12;;;;;;;25.83;12.60;;;;;;;10.44;67.12;100202.37;1421332;92;21465;-81
2023/04/23 04:47:38;;;;;;;16.63;12.03;;;;;;;10.50;67.48;100199.11;1418027;92;22562;-81
2023/04/23 04:50:06;;;;;;;21.03;11.23;;;;;;;10.52;66.43;100203.27;1418232;92;21479;-80
2023/04/23 04:52:32;;;;;;;19.37;13.37;;;;;;;10.56;66.53;100210.44;1421546;92;22359;-81
2023/04/23 04:54:58;;;;;;;21.93;12.77;;;;;;;10.61;66.50;100210.78;1420753;92;21628;-80
2023/04/23 04:57:24;;;;;;;20.37;13.20;;;;;;;10.65;66.70;100207.36;1419675;92;21480;-79
2023/04/23 04:59:51;;;;;;;23.43;12.70;;;;;;;10.70;66.87;100207.20;1431002;92;21457;-79
2023/04/23 05:02:18;;;;;;;18.90;12.87;;;;;;;10.74;67.00;100215.20;1409281;92;21450;-80
2023/04/23 05:04:45;;;;;;;21.33;12.80;;;;;;;10.76;67.21;100213.23;1419386;92;22582;-80
2023/04/23 05:07:11;;;;;;;20.77;11.97;;;;;;;10.80;67.00;100217.72;1426412;92;21510;-81
2023/04/23 05:09:37;;;;;;;18.83;12.27;;;;;;;10.83;67.06;100224.86;1420248;92;21436;-80
2023/04/23 05:12:06;;;;;;;18.40;11.90;;;;;;;10.84;66.22;100219.89;1418334;92;22330;-82
2023/04/23 05:14:33;;;;;;;27.67;13.97;;;;;;;10.88;66.26;100218.29;1423708;92;21562;-83
2023/04/23 05:16:59;;;;;;;17.67;11.70;;;;;;;10.93;65.95;100223.92;1417215;92;21609;-81
2023/04/23 05:19:25;;;;;;;25.90;13.73;;;;;;;10.95;65.94;100226.77;1420836;92;22390;-80
2023/04/23 05:21:51;;;;;;;25.83;13.60;;;;;;;11.02;66.11;100234.94;1419338;92;21501;-80
2023/04/23 05:24:17;;;;;;;19.67;12.30;;;;;;;11.06;66.19;100234.95;1423293;90;21554;-80
2023/04/23 05:26:44;;;;;;;16.70;11.17;;;;;;;11.12;66.26;100242.27;1421850;92;22425;-80
2023/04/23 05:29:13;;;;;;;19.70;12.13;;;;;;;11.21;66.24;100237.36;1420565;92;21539;-80
2023/04/23 05:31:38;;;;;;;22.33;11.93;;;;;;;11.34;65.91;100247.55;1403033;92;22579;-81
2023/04/23 05:34:04;;;;;;;43.43;14.10;;;;;;;11.45;66.66;100239.80;1401641;92;22411;-81
2023/04/23 05:36:30;;;;;;;20.83;13.23;;;;;;;11.53;67.29;100231.90;1399702;92;21443;-80
2023/04/23 05:38:56;;;;;;;22.30;11.87;;;;;;;11.57;66.18;100233.27;1421715;92;22392;-80
2023/04/23 05:41:23;;;;;;;24.00;13.30;;;;;;;11.69;65.53;100238.61;1416828;92;21546;-81
2023/04/23 05:43:49;;;;;;;20.10;11.93;;;;;;;11.81;64.62;100226.39;1417344;92;21664;-81
2023/04/23 05:46:15;;;;;;;20.23;11.40;;;;;;;11.94;64.47;100222.33;1415905;92;21546;-81
2023/04/23 05:48:41;;;;;;;20.63;11.93;;;;;;;12.08;63.53;100225.33;1401269;92;22493;-81
2023/04/23 05:51:08;;;;;;;20.67;11.77;;;;;;;12.18;62.01;100228.68;1419943;92;22024;-80
2023/04/23 05:53:34;;;;;;;17.47;11.67;;;;;;;12.31;61.65;100224.22;1419891;92;21494;-81
2023/04/23 05:56:01;;;;;;;19.00;12.27;;;;;;;12.46;61.13;100229.23;1426052;92;22322;-80
2023/04/23 05:58:27;;;;;;;19.57;11.57;;;;;;;12.60;60.67;100237.87;1420953;92;21405;-81
2023/04/23 06:00:54;;;;;;;13.83;10.17;;;;;;;12.71;59.32;100226.56;1414795;92;21546;-82
2023/04/23 06:03:20;;;;;;;29.07;12.07;;;;;;;12.84;59.08;100229.56;1425414;92;21508;-82
2023/04/23 06:05:46;;;;;;;18.97;10.97;;;;;;;12.96;58.71;100238.84;1422969;92;21539;-83
2023/04/23 06:08:12;;;;;;;21.67;10.23;;;;;;;13.10;58.40;100228.86;1416217;92;22434;-83
2023/04/23 06:10:39;;;;;;;15.20;9.27;;;;;;;13.22;56.83;100229.33;1422404;92;21476;-82
2023/04/23 06:13:05;;;;;;;20.07;8.40;;;;;;;13.39;55.34;100227.50;1425231;92;21421;-81
2023/04/23 06:15:31;;;;;;;14.87;8.70;;;;;;;13.58;53.59;100226.76;1415791;92;22346;-82
2023/04/23 06:17:57;;;;;;;14.23;8.10;;;;;;;13.77;53.89;100234.33;1419644;92;21472;-81
2023/04/23 06:20:24;;;;;;;13.03;8.10;;;;;;;13.90;52.69;100235.12;1419684;92;21473;-81
2023/04/23 06:22:51;;;;;;;14.70;8.20;;;;;;;14.08;52.48;100232.20;1412061;92;21548;-82
2023/04/23 06:25:17;;;;;;;14.10;8.63;;;;;;;14.24;51.59;100232.08;1422255;92;21428;-81
2023/04/23 06:27:43;;;;;;;11.80;7.30;;;;;;;14.35;50.71;100238.33;1418497;92;21642;-80
2023/04/23 06:30:10;;;;;;;10.97;7.77;;;;;;;14.45;50.08;100240.78;1416100;92;22300;-80
2023/04/23 06:32:36;;;;;;;13.50;9.53;;;;;;;14.55;49.24;100239.23;1412663;92;21606;-80
2023/04/23 06:35:04;;;;;;;20.30;9.27;;;;;;;14.63;48.98;100241.84;1421109;92;21436;-81
2023/04/23 06:37:31;;;;;;;16.90;9.40;;;;;;;14.68;48.64;100248.80;1379365;93;21751;-83
2023/04/23 06:39:59;;;;;;;12.30;7.70;;;;;;;14.71;48.71;100244.44;1421635;92;21545;-81
2023/04/23 06:42:25;;;;;;;16.10;8.10;;;;;;;14.71;47.64;100240.45;1424256;92;21458;-81
2023/04/23 06:44:52;;;;;;;16.90;8.13;;;;;;;14.78;47.59;100237.37;1414864;92;21451;-82
2023/04/23 06:47:19;;;;;;;21.43;8.90;;;;;;;14.83;47.49;100246.99;1412125;92;21516;-81
2023/04/23 06:49:46;;;;;;;17.47;7.77;;;;;;;14.88;47.28;100244.63;1420162;92;21636;-81
2023/04/23 06:52:12;;;;;;;14.03;8.23;;;;;;;14.91;46.63;100243.95;1417927;92;21473;-81
2023/04/23 06:54:38;;;;;;;13.73;7.77;;;;;;;14.96;46.73;100249.55;1415297;92;22021;-81
2023/04/23 06:57:04;;;;;;;13.40;9.30;;;;;;;15.01;46.94;100248.50;1397403;92;22433;-82
2023/04/23 06:59:33;;;;;;;16.00;8.73;;;;;;;15.09;46.87;100253.77;1419168;92;21472;-84
2023/04/23 07:02:00;;;;;;;14.10;8.23;;;;;;;15.21;47.26;100248.30;1415771;92;21606;-87
2023/04/23 07:04:26;;;;;;;16.00;8.83;;;;;;;15.34;47.37;100251.18;1419461;92;21510;-85
2023/04/23 07:06:53;;;;;;;14.73;8.70;;;;;;;15.46;47.37;100250.22;1419575;92;21488;-89
2023/04/23 07:09:53;;;;;;;17.00;8.83;;;;;;;15.56;46.93;100249.92;1395645;92;22866;-85
2023/04/23 07:12:20;;;;;;;16.57;8.60;;;;;;;15.66;46.98;100254.49;1421885;92;21568;-85
2023/04/23 07:14:46;;;;;;;15.63;8.63;;;;;;;15.73;46.56;100254.09;1411269;92;22257;-86
2023/04/23 07:17:13;;;;;;;16.97;9.33;;;;;;;15.82;46.40;100248.14;1417721;92;21540;-85
2023/04/23 07:19:39;;;;;;;17.60;9.67;;;;;;;15.89;45.92;100250.92;1412227;92;21450;-85
2023/04/23 07:22:05;;;;;;;18.33;8.23;;;;;;;15.92;45.31;100247.88;1416700;92;21540;-85
2023/04/23 07:28:32;;;;;;;14.98;7.45;;;;;;;15.95;45.36;100244.31;1419083;92;21554;-85
2023/04/23 07:30:59;;;;;;;13.00;7.80;;;;;;;16.01;45.42;100242.23;1415597;92;21642;-84
2023/04/23 07:33:25;;;;;;;16.00;7.50;;;;;;;16.08;44.70;100237.47;1415831;92;22361;-84
2023/04/23 07:35:51;;;;;;;18.17;8.07;;;;;;;16.01;44.53;100246.75;1416348;92;21480;-83
2023/04/23 07:38:17;;;;;;;10.50;8.37;;;;;;;16.04;45.16;100244.22;1428380;92;21442;-83
2023/04/23 07:40:46;;;;;;;12.60;8.40;;;;;;;16.10;45.42;100236.78;1423130;92;21465;-82
2023/04/23 07:43:13;;;;;;;17.17;7.80;;;;;;;16.11;45.25;100237.09;1403975;93;21762;-82
2023/04/23 07:45:40;;;;;;;15.43;8.10;;;;;;;16.17;44.50;100237.19;1418072;92;21435;-83
2023/04/23 07:48:09;;;;;;;14.00;7.97;;;;;;;16.24;44.74;100239.92;1423607;92;22419;-82
2023/04/23 07:50:35;;;;;;;15.50;7.80;;;;;;;16.30;44.19;100242.34;1416862;92;21473;-82
2023/04/23 07:53:01;;;;;;;17.73;7.97;;;;;;;16.31;44.01;100241.31;1414371;92;21502;-82
2023/04/23 07:55:28;;;;;;;11.80;8.13;;;;;;;16.43;43.93;100241.16;1413925;92;22618;-81
2023/04/23 07:57:54;;;;;;;13.30;8.27;;;;;;;16.58;43.21;100245.92;1418088;92;21428;-81
2023/04/23 08:00:20;;;;;;;11.53;8.53;;;;;;;16.67;43.46;100247.44;1409318;92;21493;-82
2023/04/23 08:02:47;;;;;;;13.97;7.53;;;;;;;16.77;43.59;100239.63;1414385;92;22609;-82
2023/04/23 08:05:13;;;;;;;29.97;8.17;;;;;;;16.82;43.14;100244.72;1380714;93;21612;-82
2023/04/23 08:07:39;;;;;;;21.93;7.97;;;;;;;16.85;42.96;100247.52;1420302;92;21524;-82
2023/04/23 08:10:07;;;;;;;13.37;7.33;;;;;;;16.82;42.28;100239.88;1414464;92;21616;-82
2023/04/23 08:12:34;;;;;;;11.10;7.07;;;;;;;16.83;42.24;100249.55;1414415;92;21465;-82
2023/04/23 08:15:02;;;;;;;12.13;7.20;;;;;;;16.82;41.81;100246.56;1416133;92;22548;-81
2023/04/23 08:17:28;;;;;;;11.63;7.60;;;;;;;16.86;42.31;100250.49;1346173;92;21414;-82
2023/04/23 08:19:54;;;;;;;12.27;7.90;;;;;;;16.90;42.53;100249.92;1332275;93;22331;-80
2023/04/23 08:22:20;;;;;;;13.00;7.50;;;;;;;16.94;42.05;100249.02;1351104;92;21420;-83
2023/04/23 08:24:46;;;;;;;11.40;7.17;;;;;;;16.97;41.98;100253.16;1396044;92;21502;-82
2023/04/23 08:27:13;;;;;;;19.03;8.13;;;;;;;16.97;41.24;100251.30;1416873;92;22330;-81
2023/04/23 08:29:39;;;;;;;15.37;7.27;;;;;;;17.05;41.39;100247.16;1417909;92;21870;-82
2023/04/23 08:32:05;;;;;;;16.63;7.40;;;;;;;17.18;41.52;100246.45;1419230;92;21472;-82
2023/04/23 08:34:31;;;;;;;13.13;7.13;;;;;;;17.29;40.85;100247.73;1413195;92;21472;-81
2023/04/23 08:36:57;;;;;;;20.03;7.20;;;;;;;17.36;40.84;100249.95;1418002;92;21515;-81
2023/04/23 08:39:23;;;;;;;14.60;7.63;;;;;;;17.35;40.40;100245.64;1384208;93;21442;-80
2023/04/23 08:41:54;;;;;;;12.63;7.17;;;;;;;17.44;40.15;100240.95;1400558;92;21480;-82
2023/04/23 08:44:26;;;;;;;19.03;7.77;;;;;;;17.64;40.03;100240.55;1412024;92;22018;-82
2023/04/23 08:46:54;;;;;;;11.10;6.90;;;;;;;17.98;40.22;100241.05;1398848;92;21465;-81
2023/04/23 08:49:20;;;;;;;10.47;6.30;;;;;;;18.20;39.08;100231.00;1330082;93;21472;-82
2023/04/23 08:51:53;;;;;;;14.03;6.50;;;;;;;18.42;38.67;100230.33;1356573;92;21589;-82
2023/04/23 08:54:28;;;;;;;12.70;6.37;;;;;;;18.66;37.21;100238.28;1344009;92;21377;-82
2023/04/23 08:56:58;;;;;;;9.73;6.43;;;;;;;18.93;38.15;100231.61;1477070;93;22175;-82
2023/04/23 08:59:31;;;;;;;11.57;6.75;;;;;;;19.21;38.66;100239.95;1350684;92;21465;-81
2023/04/23 09:02:00;;;;;;;16.47;6.80;;;;;;;19.45;37.38;100233.08;1495671;92;22155;-82
2023/04/23 09:04:27;;;;;;;11.13;5.67;;;;;;;19.68;35.77;100233.48;1329169;93;22527;-84
2023/04/23 09:06:55;;;;;;;11.88;5.83;;;;;;;19.83;36.21;100232.69;1418774;92;21585;-83
2023/04/23 09:09:23;;;;;;;9.38;6.03;;;;;;;19.88;35.91;100225.84;1416650;92;21672;-84
2023/04/23 09:11:49;;;;;;;10.53;6.05;;;;;;;19.99;35.71;100230.02;1420921;92;21436;-82
2023/04/23 09:14:16;;;;;;;10.80;5.37;;;;;;;20.16;36.18;100229.02;1401728;93;21486;-85
2023/04/23 09:16:43;;;;;;;13.38;5.62;;;;;;;20.37;35.58;100225.68;1422336;92;21499;-85
2023/04/23 09:19:10;;;;;;;17.45;5.87;;;;;;;20.62;35.85;100221.20;1415949;92;22544;-86
2023/04/23 09:21:41;;;;;;;11.93;5.83;;;;;;;20.78;34.92;100227.09;1399519;93;21486;-80
2023/04/23 09:24:13;;;;;;;10.70;5.85;;;;;;;20.92;35.11;100223.25;1418346;92;21635;-81
2023/04/23 09:26:48;;;;;;;7.78;6.10;;;;;;;20.91;33.47;100220.23;1345490;92;21384;-80
2023/04/23 09:29:20;;;;;;;10.20;5.92;;;;;;;20.95;33.38;100218.24;1353634;93;21427;-81
2023/04/23 09:31:54;;;;;;;6.50;5.67;;;;;;;21.08;33.57;100218.62;1419111;92;22521;-81
2023/04/23 09:34:23;;;;;;;10.72;5.33;;;;;;;21.22;33.60;100220.67;1417237;92;21450;-81
2023/04/23 09:36:51;;;;;;;8.40;6.03;;;;;;;21.36;33.00;100220.02;1418526;92;21575;-81
2023/04/23 09:39:23;;;;;;;11.73;6.28;;;;;;;21.44;32.31;100221.11;1416350;92;21657;-80
2023/04/23 09:41:56;;;;;;;14.50;6.35;;;;;;;21.63;32.37;100217.34;1400441;92;21532;-79
2023/04/23 09:44:21;;;;;;;14.30;5.53;;;;;;;21.69;32.01;100210.23;1414405;92;21494;-81
2023/04/23 09:46:48;;;;;;;7.22;5.40;;;;;;;21.92;31.90;100214.09;1420006;92;21495;-80
2023/04/23 09:49:14;;;;;;;9.40;5.15;;;;;;;22.17;31.11;100208.59;1402183;93;21500;-83
2023/04/23 09:51:46;;;;;;;12.40;5.17;;;;;;;22.16;29.46;100210.47;1419061;92;21420;-80
2023/04/23 09:54:23;;;;;;;12.03;5.90;;;;;;;22.25;30.68;100197.52;1395291;92;21629;-80
2023/04/23 09:56:55;;;;;;;9.90;5.12;;;;;;;22.36;30.66;100200.77;1400892;93;21553;-80
2023/04/23 09:59:27;;;;;;;5.53;4.97;;;;;;;22.49;30.55;100202.43;1352461;92;21481;-80
2023/04/23 10:01:54;;;;;;;9.80;5.05;;;;;;;22.65;30.62;100174.79;1452700;92;22483;-80
2023/04/23 10:04:24;;;;;;;11.55;4.80;;;;;;;22.75;30.14;100190.39;1399816;93;21531;-81
2023/04/23 10:06:56;;;;;;;13.48;5.08;;;;;;;23.00;29.59;100190.73;1417054;92;21428;-81
2023/04/23 10:09:23;;;;;;;10.75;5.60;;;;;;;23.09;28.45;100190.66;1452343;92;21495;-80
2023/04/23 10:12:01;;;;;;;10.15;5.40;;;;;;;23.24;28.53;100188.83;1401707;93;21680;-81
2023/04/23 10:14:28;;;;;;;8.98;4.50;;;;;;;23.28;28.67;100187.31;1416884;92;21430;-81
2023/04/23 10:17:02;;;;;;;7.42;4.12;;;;;;;23.15;26.50;100185.13;1411375;92;21561;-81
2023/04/23 10:19:31;;;;;;;6.12;4.12;;;;;;;23.18;26.66;100180.61;1403866;93;21486;-81
2023/04/23 10:22:07;;;;;;;18.60;6.58;;;;;;;23.22;25.23;100174.23;1425339;92;22508;-81
2023/04/23 10:24:39;;;;;;;5.60;4.97;;;;;;;23.40;27.14;100170.02;1395962;92;21480;-81
2023/04/23 10:27:13;;;;;;;10.23;5.22;;;;;;;23.59;27.01;100170.69;1399007;93;21524;-81
2023/04/23 10:29:42;;;;;;;11.30;4.90;;;;;;;23.69;27.19;100168.70;1420834;92;22426;-81
2023/04/23 10:32:08;;;;;;;10.63;5.53;;;;;;;23.81;27.54;100168.16;1414182;92;22478;-81
2023/04/23 10:34:35;;;;;;;14.65;4.92;;;;;;;23.77;25.53;100158.91;1397774;92;21531;-81
2023/04/23 10:37:03;;;;;;;10.25;5.25;;;;;;;23.80;26.46;100162.47;1417707;92;21725;-81
2023/04/23 10:39:34;;;;;;;7.67;4.05;;;;;;;23.84;26.87;100158.75;1415822;92;22372;-81
2023/04/23 10:42:02;;;;;;;6.35;4.95;;;;;;;23.95;26.51;100159.77;1400919;93;21507;-81
2023/04/23 10:44:38;;;;;;;9.13;4.33;;;;;;;24.04;26.74;100161.01;1349568;92;22345;-81
2023/04/23 10:47:05;;;;;;;9.98;4.25;;;;;;;24.11;26.02;100145.47;1495597;92;21506;-82
2023/04/23 10:49:33;;;;;;;6.22;3.95;;;;;;;24.21;25.33;100144.28;1330904;93;22368;-80
2023/04/23 10:52:03;;;;;;;11.10;4.67;;;;;;;24.28;25.44;100148.17;1349370;92;21384;-80
2023/04/23 10:54:32;;;;;;;4.35;3.87;;;;;;;24.39;24.93;100149.16;1408639;92;21640;-81
2023/04/23 10:57:02;;;;;;;9.10;4.87;;;;;;;24.33;24.71;100147.72;1424473;91;21455;-80
2023/04/23 10:59:31;;;;;;;;;;;;;;;23.86;23.51;100138.53;1419566;91;21448;-81
2023/04/23 11:02:00;;;;;;;31.00;6.08;;;;;;;23.25;21.94;100135.11;1417006;91;20286;-79
2023/04/23 11:04:29;;;;;;;9.83;3.70;;;;;;;23.14;24.08;100134.91;1415965;91;23025;-80
2023/04/23 11:07:09;;;;;;;10.98;4.65;;;;;;;23.35;24.80;100134.80;1418447;92;21450;-81
2023/04/23 11:09:46;;;;;;;5.10;4.33;;;;;;;23.56;24.82;100128.45;1420029;92;22474;-80
2023/04/23 11:12:26;;;;;;;5.30;3.83;;;;;;;23.77;24.61;100126.48;1414697;92;22467;-80
2023/04/23 11:14:54;;;;;;;4.58;3.50;;;;;;;23.93;23.30;100115.94;1397931;93;21546;-81
2023/04/23 11:17:35;;;;;;;4.87;4.10;;;;;;;23.93;23.29;100118.10;1336281;92;21414;-80
2023/04/23 11:20:19;;;;;;;8.83;3.90;;;;;;;24.00;23.05;100122.03;1371012;92;21539;-81
2023/04/23 11:22:48;;;;;;;4.78;4.05;;;;;;;23.98;23.05;100117.39;1441240;93;21376;-80